Hakon Mosby — LJIT — position and weather

sailwx.info

Track history (hours):
 
Tides and Currents Weather Stations Pressure Air Temp Water Temp Dewpoint Dewpoint Depression Visibility Wind Speed Wind Dir Waves Ship Positions

Oceanographic research ship Hakon Mosby (Norway)

Detailed information on ship capabilities available from University of Delaware's Ocean Information Center and ARCUS's ALIAS (Arctic Logistics Information and Support) project.

Last reported at 2016-Feb-13 10:00 UTC. Time now 2016-Feb-13 10:59 UTC.
Position N 60°18' E 005°18'.

Type: Fishing. MMSI: 258244000.

Wind from 220 at 2 knots

Barometer 998.3 mb
Air temperature -2.0 ° C
Dewpoint -8.8 ° C
Water temperature 2.6 ° C

Date/timePositionNaut miles runAvg speedWind from/ knotsBaromVisibWave heightAir tempDewpointWater temp
2016-Feb-13 10:00N 60°18' E 005°18'0 0.0 220 / 2998.3 -2.0-8.8 2.6
2016-Feb-13 09:00N 60°18' E 005°18'0 0.0 170 / 2998.5 -2.9-9.3 2.6
2016-Feb-13 07:00N 60°18' E 005°18'0 0.0 180 998.5 -3.7-10.0 2.9
2016-Feb-13 06:00N 60°18' E 005°18'0 0.0 160 / 2998.8 -3.7-9.3 2.9
2016-Feb-13 05:00N 60°18' E 005°18'0 0.0 160 / 2999.0 -3.6-9.7 2.6
2016-Feb-13 03:00N 60°18' E 005°18'0 0.0 170 / 2999.8 -3.5-9.6 3.2
2016-Feb-13 02:00N 60°18' E 005°18'0 0.0 160 / 2999.9 -2.5-9.2 3.4
2016-Feb-13 00:00N 60°18' E 005°18'0 0.0 120 / 21000.5 -1.0-8.8 3.1
2016-Feb-12 22:00N 60°18' E 005°18'0 0.0 070 / 41001.2 -0.0-9.5 3.2
2016-Feb-12 21:00N 60°18' E 005°18'0 0.0 050 / 61001.8 0.1-9.6 3.3
2016-Feb-12 18:00N 60°18' E 005°18'0 0.0 080 / 41003.2 0.7-9.7 3.6
2016-Feb-12 17:00N 60°18' E 005°18'0 0.0 060 / 41003.7 1.1-9.8 3.7
2016-Feb-12 16:00N 60°18' E 005°18'0 0.0 050 / 4 1.3-8.9 4.0
2016-Feb-12 15:00N 60°18' E 005°18'0 0.0 030 / 81004.6 1.3-10.3 4.1
2016-Feb-12 14:00N 60°18' E 005°18'0 0.0 010 / 61005.1 1.4-10.5 4.1
2016-Feb-12 13:00N 60°18' E 005°18'0 0.0 180 / 81005.5 1.2-12.8 4.1
2016-Feb-12 12:00N 60°18' E 005°18'0 0.0 330 / 61005.8 1.3-13.3 3.9
2016-Feb-12 11:00N 60°18' E 005°18'0 0.0 320 / 41006.2 0.8-10.6 3.8
2016-Feb-12 10:00N 60°18' E 005°18'0 0.0 180 / 4 -0.0-10.7 3.9
2016-Feb-12 09:00N 60°18' E 005°18'0 0.0 210 / 21003.2 2.7-11.6 4.4
2016-Feb-12 08:00N 60°18' E 005°18'0 0.0 120 / 41003.2 2.7-11.6 4.4
2016-Feb-12 07:00N 60°18' E 005°18'0 0.0 220 / 21003.2 2.7-11.6 4.4
2016-Feb-12 06:00N 60°18' E 005°18'0 0.0 290 / 41003.2 2.7-11.6 4.4
2016-Feb-12 04:00N 60°18' E 005°18'0 0.0 030 / 61003.2 2.7-11.6 4.4
2016-Feb-12 03:00N 60°18' E 005°18'0 0.0 240 / 41003.2 2.7-11.6 4.4
2016-Feb-12 00:00N 60°18' E 005°18'0 0.0 100 / 121003.2 2.7-11.6 4.4
2016-Feb-11 23:00N 60°18' E 005°18'0 0.0 100 / 81003.2 2.7-11.6 4.4
2016-Feb-11 21:00N 60°18' E 005°18'0 0.0 090 / 141003.2 2.7-11.6 4.4
2016-Feb-11 19:00N 60°18' E 005°18'0 0.0 070 / 141003.2 2.7-11.6 4.4
2016-Feb-11 18:00N 60°18' E 005°18'0 0.0 080 / 81003.2 2.7-11.6 4.4
2016-Feb-11 17:00N 60°18' E 005°18'0 0.0 080 / 41003.2 2.7-11.6 4.4
2016-Feb-11 15:00N 60°18' E 005°18'6 3.0 090 / 141002.6 3.0-10.6 4.7
2016-Feb-11 13:00N 60°18' E 005°06'1313.4 050 / 81001.3 4.4-6.5 5.4
2016-Feb-11 12:00N 60°06' E 005°18'1110.8 060 / 101000.7 3.8-5.9 4.7
2016-Feb-11 11:00N 60°00' E 005°36'4 5.7 060 / 101000.3 4.4-6.9 6.3
2016-Feb-11 10:21N 59°60' E 005°43'618.0
2016-Feb-11 10:00N 59°54' E 005°48'1313.4 020 / 12999.8 4.0-5.1 4.6
2016-Feb-11 09:00N 60°06' E 006°00'0 0.0 040 / 19999.0 3.6-5.5 4.8
2016-Feb-11 08:00N 60°06' E 006°00'3 3.0 060 / 17998.4 3.7-4.8 5.0
2016-Feb-11 07:00N 60°06' E 005°54'0 0.0 060 / 16997.8 3.8-4.7 4.4
2016-Feb-11 06:00N 60°06' E 005°54'3 3.0 060 / 12996.9 3.7-3.4 4.1
2016-Feb-11 05:00N 60°06' E 006°00'0 0.0 060 / 10995.9 3.8-2.5 4.9
2016-Feb-11 04:00N 60°06' E 006°00'0 0.0 070 / 10995.5 3.8-3.0 5.3
2016-Feb-11 03:00N 60°06' E 006°00'3 1.5 080 / 10995.2 3.1-2.2 4.6
2016-Feb-11 01:00N 60°06' E 005°54'3 3.0 030 / 4994.1 2.3-2.2 4.6
2016-Feb-11 00:00N 60°06' E 006°00'0 0.0 290 / 6993.3 3.2-1.8 5.1
2016-Feb-10 23:00N 60°06' E 006°00'0 0.0 060 / 8992.5 2.7-1.6 5.2
2016-Feb-10 21:00N 60°06' E 006°00'0 0.0 070 / 2809.9 2.5-1.5 4.9
2016-Feb-10 20:00N 60°06' E 006°00'0 0.0 060 / 12991.0 3.3-2.6 5.3
2016-Feb-10 19:00N 60°06' E 006°00'3 1.5 070 / 14990.3 3.7-2.8 5.3
2016-Feb-10 17:00N 60°06' E 005°54'7 6.7 050 / 6989.3 3.4-2.3 4.8
2016-Feb-10 16:00N 60°12' E 006°00'3 3.0 090 / 10988.6 3.6-2.3 4.0
2016-Feb-10 15:00N 60°12' E 006°06'3 3.0 100 / 8988.1 3.6-2.6 3.9
2016-Feb-10 14:00N 60°12' E 006°00'0 0.0 290 / 2987.1 3.7-1.7 3.8
2016-Feb-10 13:00N 60°12' E 006°00'0 0.0 220 / 2986.5 3.5-1.5 3.6
2016-Feb-10 10:00N 60°12' E 006°00'0 0.0 030 / 2985.5 2.1-0.9 3.0
2016-Feb-10 09:00N 60°12' E 006°00'0 0.0 300 / 2985.1 1.7-0.1 3.7
2016-Feb-10 08:00N 60°12' E 006°00'7 6.7 030 / 4984.5 0.7-1.1 4.1
2016-Feb-10 07:00N 60°06' E 005°54'0 0.0 160 / 6983.8 2.7 0.6 3.8
2016-Feb-10 06:00N 60°06' E 005°54'3 1.5 040 983.3 2.0-0.3 4.5
2016-Feb-10 04:00N 60°06' E 006°00'0 0.0 080 / 2982.5 1.9-0.1 4.5
2016-Feb-10 03:00N 60°06' E 006°00'3 3.0 040 / 14982.0 3.0 1.0 5.1
2016-Feb-10 02:00N 60°06' E 005°54'3 3.0 060 / 2981.8 2.3 0.7 4.3
2016-Feb-10 01:00N 60°06' E 006°00'0 0.0 050 / 4981.3 2.6 0.6 5.0
2016-Feb-10 00:00N 60°06' E 006°00'7 3.4 050 / 12980.8 3.2 1.1 5.6
2016-Feb-09 22:00N 60°12' E 006°06'0 0.0 060 / 8980.0 2.7 1.1 4.7
2016-Feb-09 21:00N 60°12' E 006°06'3 1.0 040 / 4979.5 2.2 0.8 3.6
2016-Feb-09 18:00N 60°12' E 006°00'0 0.0 020 / 4978.0 2.4 0.8 4.5
2016-Feb-09 17:00N 60°12' E 006°00'6 3.0 080 / 4977.2 2.1 0.3 4.7
2016-Feb-09 15:00N 60°06' E 006°00'10 6.8 070 / 6976.0 2.3 0.3 5.0
2016-Feb-09 13:33N 59°58' E 005°48'14 9.1
2016-Feb-09 12:00N 60°06' E 005°24'19 6.3 210 / 16974.0 5.8 2.7 6.8
2016-Feb-09 09:00N 60°24' E 005°12'7 6.7 160 / 17972.3 4.1 1.5 6.9
2016-Feb-09 08:00N 60°18' E 005°18'0 0.0 160 / 10971.6 4.5 1.9 7.1
2016-Feb-09 06:00N 60°18' E 005°18'0 0.0 160 / 10971.1 5.2 2.6 7.3
2016-Feb-09 05:00N 60°18' E 005°18'0 0.0 160 / 10971.0 4.9 2.2 7.3
2016-Feb-09 04:00N 60°18' E 005°18'0 0.0 160 / 8970.9 4.9 2.4 7.3
2016-Feb-09 03:00N 60°18' E 005°18'0 0.0 160 / 10970.6 4.6 2.1 7.3
2016-Feb-09 01:00N 60°18' E 005°18'0 0.0 160 / 8970.5 4.4 1.9 7.5
2016-Feb-09 00:00N 60°18' E 005°18'0 0.0 160 / 8970.4 4.4 1.8 7.3
2016-Feb-08 23:00N 60°18' E 005°18'0 0.0 160 / 8970.0 5.0 1.7 7.3
2016-Feb-08 22:00N 60°18' E 005°18'0 0.0 170 / 8970.1 5.0 2.1 7.3
2016-Feb-08 21:00N 60°18' E 005°18'0 0.0 160 / 8970.0 5.1 2.0 7.3
2016-Feb-08 20:00N 60°18' E 005°18'0 0.0 170 / 8969.9 5.5 2.6 7.3
2016-Feb-08 19:00N 60°18' E 005°18'0 0.0 170 / 8969.6 5.3 2.6 7.3
2016-Feb-08 18:00N 60°18' E 005°18'0 0.0 160 / 6969.5 4.6 2.2 7.3
2016-Feb-08 15:00N 60°18' E 005°18'0 0.0 170 / 8968.5 5.8 2.3 7.3
2016-Feb-08 14:00N 60°18' E 005°18'0 0.0 170 / 10968.4 6.1 2.8 7.3
2016-Feb-08 10:00N 60°18' E 005°18'0 0.0 160 / 10967.1 5.8 1.5 7.1
2016-Feb-08 09:00N 60°18' E 005°18'0 0.0 170 / 8967.0 6.3 1.6 7.1
2016-Feb-08 06:00N 60°18' E 005°18'0 0.0 160 / 8969.5 5.1 1.1 7.3
2016-Feb-08 04:00N 60°18' E 005°18'0 0.0 160 / 10972.0 5.6 1.8 7.3
2016-Feb-08 03:00N 60°18' E 005°18'0 0.0 160 / 12972.9 5.9 1.8 7.3
2016-Feb-08 02:00N 60°18' E 005°18'0 0.0 160 / 14973.4 5.0 1.8 7.2
2016-Feb-08 01:00N 60°18' E 005°18'0 0.0 160 / 16973.6 5.2 2.0 7.3
2016-Feb-08 00:00N 60°18' E 005°18'0 0.0 160 / 16973.8 5.1 2.0 7.3
2016-Feb-07 23:00N 60°18' E 005°18'0 0.0 160 / 16973.4 1.9-0.4 7.3
2016-Feb-07 22:00N 60°18' E 005°18'0 0.0 160 / 14973.0 3.5 0.7 7.3
2016-Feb-07 21:00N 60°18' E 005°18'0 0.0 160 / 17973.4 4.5 0.8 7.3
2016-Feb-07 20:00N 60°18' E 005°18'0 0.0 160 / 17974.9 5.5 0.3 7.1
2016-Feb-07 19:00N 60°18' E 005°18'0 0.0 170 / 10976.9 5.3 1.6 7.1
2016-Feb-07 18:00N 60°18' E 005°18'0 0.0 170 / 12978.1 5.0 1.7 7.3
2016-Feb-07 16:00N 60°18' E 005°18'0 0.0 160 / 10979.5 6.0 2.3 7.1
2016-Feb-07 15:00N 60°18' E 005°18'0 0.0 170 / 10979.6 6.8 2.5 7.1
2016-Feb-07 12:00N 60°18' E 005°18'0 0.0 170 / 10981.0 6.6 4.0 7.1
2016-Feb-07 11:00N 60°18' E 005°18'0 0.0 170 / 10979.2 7.0 4.3 7.1
2016-Feb-07 09:00N 60°18' E 005°18'0 0.0 170 / 10979.5 7.4 3.8 7.1
2016-Feb-07 07:00N 60°18' E 005°18'0 0.0 170 / 10980.8 7.6 5.0 7.0
2016-Feb-07 06:00N 60°18' E 005°18'0 0.0 170 / 12981.3 7.8 5.2 6.9
2016-Feb-07 04:00N 60°18' E 005°18'0 0.0 160 / 12982.5 8.1 5.8 6.8
2016-Feb-07 03:00N 60°18' E 005°18'0 0.0 160 / 12982.8 7.3 5.2 6.8
2016-Feb-07 00:00N 60°18' E 005°18'0 0.0 160 / 14983.9 6.2 2.7 7.0
2016-Feb-06 23:00N 60°18' E 005°18'0 0.0 160 / 14984.4 6.1 2.1 7.0
2016-Feb-06 22:00N 60°18' E 005°18'0 0.0 170 / 10985.5 5.9 1.6 6.9
2016-Feb-06 21:00N 60°18' E 005°18'0 0.0 210 / 2987.3 4.0 0.6 6.8
2016-Feb-06 19:00N 60°18' E 005°18'0 0.0 140 / 6991.5 5.0-0.7 7.1
2016-Feb-06 18:00N 60°18' E 005°18'0 0.0 170 / 4992.9 5.3-0.2 7.1
2016-Feb-06 17:00N 60°18' E 005°18'0 0.0 160 / 8994.1 5.6 0.3 7.1
2016-Feb-06 16:00N 60°18' E 005°18'0 0.0 170 / 8995.4 5.4 0.7 7.0
2016-Feb-06 15:00N 60°18' E 005°18'0 0.0 170 / 8995.9 5.6 1.2 7.1
2016-Feb-06 13:00N 60°18' E 005°18'0 0.0 160 / 8997.0 5.6 1.7 6.9
2016-Feb-06 12:00N 60°18' E 005°18'0 0.0 160 / 6997.4 6.0 1.9 6.8
2016-Feb-06 09:00N 60°18' E 005°18'0 0.0 160 / 4996.5 5.0 2.2 7.0
2016-Feb-06 08:00N 60°18' E 005°18'0 0.0 200 / 4996.0 5.0 2.3 7.0
2016-Feb-06 06:00N 60°18' E 005°18'0 0.0 240 / 6992.8 5.0 2.6 7.1
2016-Feb-06 04:00N 60°18' E 005°18'0 0.0 160 / 14991.6 7.2 4.6 7.0
2016-Feb-06 03:00N 60°18' E 005°18'0 0.0 160 / 16993.0 7.4 4.5 6.9
2016-Feb-06 01:00N 60°18' E 005°18'0 0.0 160 / 14994.9 7.3 5.1 6.9
2016-Feb-06 00:00N 60°18' E 005°18'0 0.0 170 / 12995.9 7.0 4.9 6.8
2016-Feb-05 21:00N 60°18' E 005°18'0 0.0 160 / 12999.0 6.5 4.6 6.8
2016-Feb-05 20:00N 60°18' E 005°18'0 0.0 160 / 14999.8 6.1 4.3 6.6
2016-Feb-05 19:00N 60°18' E 005°18'0 0.0 160 / 121000.3 6.2 4.2 6.6
2016-Feb-05 18:00N 60°18' E 005°18'0 0.0 160 / 141001.2 6.0 4.1 6.5
2016-Feb-05 17:00N 60°18' E 005°18'0 0.0 160 / 141002.0 5.7 3.7 6.3
2016-Feb-05 16:00N 60°18' E 005°18'0 0.0 160 / 141002.7 5.5 3.2 6.3
2016-Feb-05 15:00N 60°18' E 005°18'0 0.0 160 / 161003.2 5.0 2.5 6.1
2016-Feb-05 14:00N 60°18' E 005°18'0 0.0 160 / 161003.7 4.8 1.9 6.1
2016-Feb-05 13:00N 60°18' E 005°18'0 0.0 160 / 141004.6 4.3 1.0 6.1
2016-Feb-05 12:00N 60°18' E 005°18'0 0.0 160 / 101005.6 4.0 0.6 5.7
2016-Feb-05 11:00N 60°18' E 005°18'0 0.0 160 / 141006.5 3.6-0.0 5.8
2016-Feb-05 10:00N 60°18' E 005°18'0 0.0 160 / 141007.2 2.5-0.8 5.2
2016-Feb-05 09:00N 60°18' E 005°18'0 0.0 160 / 121008.1 1.9-1.7 5.1
2016-Feb-05 07:00N 60°18' E 005°18'0 0.0 170 / 8 1.9-1.9 4.6
2016-Feb-05 06:00N 60°18' E 005°18'0 0.0 170 / 81011.2 1.6-1.5 4.7
2016-Feb-05 05:00N 60°18' E 005°18'0 0.0 150 / 81012.1 2.2-1.8 4.8
2016-Feb-05 03:00N 60°18' E 005°18'0 0.0 150 / 61013.7 2.1-1.6 4.6
2016-Feb-05 02:00N 60°18' E 005°18'0 0.0 150 / 41014.7 1.8-1.4 4.9
2016-Feb-05 01:00N 60°18' E 005°18'0 0.0 140 / 61015.2 1.8-1.6 4.4
2016-Feb-05 00:00N 60°18' E 005°18'0 0.0 160 / 61015.3 1.8-1.5 4.1
2016-Feb-04 21:00N 60°18' E 005°18'0 0.0 160 / 61015.8 1.1-1.1 4.5
2016-Feb-04 19:00N 60°18' E 005°18'0 0.0 170 / 41015.6 1.0-0.6 4.5
2016-Feb-04 18:00N 60°18' E 005°18'0 0.0 160 / 21016.0 1.1-0.9 4.5
2016-Feb-04 17:00N 60°18' E 005°18'0 0.0 150 / 41015.5 1.3-0.5 4.2
2016-Feb-04 16:00N 60°18' E 005°18'0 0.0 170 / 21015.1 1.1-0.9 4.4
2016-Feb-04 15:00N 60°18' E 005°18'0 0.0 160 / 21014.7 1.0-1.0 4.3
2016-Feb-04 14:00N 60°18' E 005°18'0 0.0 160 / 41014.3 1.6-1.1 4.1
2016-Feb-04 13:00N 60°18' E 005°18'0 0.0 170 / 21013.7 1.6-1.2 4.1
2016-Feb-04 12:00N 60°18' E 005°18'0 0.0 200 / 21013.2 1.4-1.0 4.1
2016-Feb-04 11:00N 60°18' E 005°18'0 0.0 180 / 21013.1 0.8-1.0 3.9
2016-Feb-04 10:00N 60°18' E 005°18'0 0.0 140 / 41012.3 0.7-1.0 4.0
2016-Feb-04 09:00N 60°18' E 005°18'0 0.0 160 / 21011.8 0.4-1.1 4.1
2016-Feb-04 07:00N 60°18' E 005°18'0 0.0 050 / 21010.2 0.2-1.3 4.3
2016-Feb-04 06:00N 60°18' E 005°18'0 0.0 330 / 41010.1 -0.0-1.4 4.3
2016-Feb-04 05:00N 60°18' E 005°18'0 0.0 190 / 21010.0 0.4-1.2 4.3
2016-Feb-04 04:00N 60°18' E 005°18'0 0.0 160 / 21009.3 0.5-1.3 4.4
2016-Feb-04 03:00N 60°18' E 005°18'0 0.0 160 / 41009.0 0.4-1.3 4.3
2016-Feb-04 02:00N 60°18' E 005°18'0 0.0 170 1009.0 1.1-0.9 4.5
2016-Feb-04 01:00N 60°18' E 005°18'0 0.0 210 1008.7 0.8-1.1 4.4
2016-Feb-04 00:00N 60°18' E 005°18'0 0.0 310 / 21008.6 1.1-0.8 4.5
2016-Feb-03 23:00N 60°18' E 005°18'0 0.0 280 / 41008.2 1.0-1.0 4.6
2016-Feb-03 22:00N 60°18' E 005°18'0 0.0 330 / 81007.8 1.2-1.3 4.6
2016-Feb-03 21:00N 60°18' E 005°18'0 0.0 320 / 41006.9 2.4-1.0 4.9
2016-Feb-03 20:00N 60°18' E 005°18'0 0.0 310 / 41006.5 2.3-0.7 4.9
2016-Feb-03 18:00N 60°18' E 005°18'0 0.0 300 / 21005.2 1.6-0.5 5.1
2016-Feb-03 17:00N 60°18' E 005°18'0 0.0 360 / 61005.1 1.5-0.8 5.1
2016-Feb-03 16:00N 60°18' E 005°18'0 0.0 310 / 61004.2 2.2-0.5 5.1
2016-Feb-03 15:00N 60°18' E 005°18'0 0.0 280 / 81003.6 2.0-1.0 5.2
2016-Feb-03 14:00N 60°18' E 005°18'0 0.0 330 / 61003.1 2.0-0.7 5.3
2016-Feb-03 13:00N 60°18' E 005°18'0 0.0 1002.5 3.1-1.3 5.1
2016-Feb-03 12:00N 60°18' E 005°18'0 0.0 300 / 61002.1 2.5-1.7 5.2
2016-Feb-03 11:00N 60°18' E 005°18'0 0.0 300 / 81001.2 3.9-1.5 5.1
2016-Feb-03 10:00N 60°18' E 005°18'   300 / 81000.4 3.5-0.2 5.3
Track history (hours):
 
Tides and Currents Weather Stations Pressure Air Temp Water Temp Dewpoint Dewpoint Depression Visibility Wind Speed Wind Dir Waves Ship Positions

Oceanographic research ship Hakon Mosby (Norway)

Detailed information on ship capabilities available from University of Delaware's Ocean Information Center and ARCUS's ALIAS (Arctic Logistics Information and Support) project.

Last reported at 2016-Feb-13 10:00 UTC. Time now 2016-Feb-13 10:59 UTC.
Position N 60°18' E 005°18'.

Type: Fishing. MMSI: 258244000.

Wind from 220 at 2 knots

Barometer 998.3 mb
Air temperature -2.0 ° C
Dewpoint -8.8 ° C
Water temperature 2.6 ° C

Date/timePositionNaut miles runAvg speedWind from/ knotsBaromVisibWave heightAir tempDewpointWater temp
2016-Feb-13 10:00N 60°18' E 005°18'0 0.0 220 / 2998.3 -2.0-8.8 2.6
2016-Feb-13 09:00N 60°18' E 005°18'0 0.0 170 / 2998.5 -2.9-9.3 2.6
2016-Feb-13 07:00N 60°18' E 005°18'0 0.0 180 998.5 -3.7-10.0 2.9
2016-Feb-13 06:00N 60°18' E 005°18'0 0.0 160 / 2998.8 -3.7-9.3 2.9
2016-Feb-13 05:00N 60°18' E 005°18'0 0.0 160 / 2999.0 -3.6-9.7 2.6
2016-Feb-13 03:00N 60°18' E 005°18'0 0.0 170 / 2999.8 -3.5-9.6 3.2
2016-Feb-13 02:00N 60°18' E 005°18'0 0.0 160 / 2999.9 -2.5-9.2 3.4
2016-Feb-13 00:00N 60°18' E 005°18'0 0.0 120 / 21000.5 -1.0-8.8 3.1
2016-Feb-12 22:00N 60°18' E 005°18'0 0.0 070 / 41001.2 -0.0-9.5 3.2
2016-Feb-12 21:00N 60°18' E 005°18'0 0.0 050 / 61001.8 0.1-9.6 3.3
2016-Feb-12 18:00N 60°18' E 005°18'0 0.0 080 / 41003.2 0.7-9.7 3.6
2016-Feb-12 17:00N 60°18' E 005°18'0 0.0 060 / 41003.7 1.1-9.8 3.7
2016-Feb-12 16:00N 60°18' E 005°18'0 0.0 050 / 4 1.3-8.9 4.0
2016-Feb-12 15:00N 60°18' E 005°18'0 0.0 030 / 81004.6 1.3-10.3 4.1
2016-Feb-12 14:00N 60°18' E 005°18'0 0.0 010 / 61005.1 1.4-10.5 4.1
2016-Feb-12 13:00N 60°18' E 005°18'0 0.0 180 / 81005.5 1.2-12.8 4.1
2016-Feb-12 12:00N 60°18' E 005°18'0 0.0 330 / 61005.8 1.3-13.3 3.9
2016-Feb-12 11:00N 60°18' E 005°18'0 0.0 320 / 41006.2 0.8-10.6 3.8
2016-Feb-12 10:00N 60°18' E 005°18'0 0.0 180 / 4 -0.0-10.7 3.9
2016-Feb-12 09:00N 60°18' E 005°18'0 0.0 210 / 21003.2 2.7-11.6 4.4
2016-Feb-12 08:00N 60°18' E 005°18'0 0.0 120 / 41003.2 2.7-11.6 4.4
2016-Feb-12 07:00N 60°18' E 005°18'0 0.0 220 / 21003.2 2.7-11.6 4.4
2016-Feb-12 06:00N 60°18' E 005°18'0 0.0 290 / 41003.2 2.7-11.6 4.4
2016-Feb-12 04:00N 60°18' E 005°18'0 0.0 030 / 61003.2 2.7-11.6 4.4
2016-Feb-12 03:00N 60°18' E 005°18'0 0.0 240 / 41003.2 2.7-11.6 4.4
2016-Feb-12 00:00N 60°18' E 005°18'0 0.0 100 / 121003.2 2.7-11.6 4.4
2016-Feb-11 23:00N 60°18' E 005°18'0 0.0 100 / 81003.2 2.7-11.6 4.4
2016-Feb-11 21:00N 60°18' E 005°18'0 0.0 090 / 141003.2 2.7-11.6 4.4
2016-Feb-11 19:00N 60°18' E 005°18'0 0.0 070 / 141003.2 2.7-11.6 4.4
2016-Feb-11 18:00N 60°18' E 005°18'0 0.0 080 / 81003.2 2.7-11.6 4.4
2016-Feb-11 17:00N 60°18' E 005°18'0 0.0 080 / 41003.2 2.7-11.6 4.4
2016-Feb-11 15:00N 60°18' E 005°18'6 3.0 090 / 141002.6 3.0-10.6 4.7
2016-Feb-11 13:00N 60°18' E 005°06'1313.4 050 / 81001.3 4.4-6.5 5.4
2016-Feb-11 12:00N 60°06' E 005°18'1110.8 060 / 101000.7 3.8-5.9 4.7
2016-Feb-11 11:00N 60°00' E 005°36'4 5.7 060 / 101000.3 4.4-6.9 6.3
2016-Feb-11 10:21N 59°60' E 005°43'618.0
2016-Feb-11 10:00N 59°54' E 005°48'1313.4 020 / 12999.8 4.0-5.1 4.6
2016-Feb-11 09:00N 60°06' E 006°00'0 0.0 040 / 19999.0 3.6-5.5 4.8
2016-Feb-11 08:00N 60°06' E 006°00'3 3.0 060 / 17998.4 3.7-4.8 5.0
2016-Feb-11 07:00N 60°06' E 005°54'0 0.0 060 / 16997.8 3.8-4.7 4.4
2016-Feb-11 06:00N 60°06' E 005°54'3 3.0 060 / 12996.9 3.7-3.4 4.1
2016-Feb-11 05:00N 60°06' E 006°00'0 0.0 060 / 10995.9 3.8-2.5 4.9
2016-Feb-11 04:00N 60°06' E 006°00'0 0.0 070 / 10995.5 3.8-3.0 5.3
2016-Feb-11 03:00N 60°06' E 006°00'3 1.5 080 / 10995.2 3.1-2.2 4.6
2016-Feb-11 01:00N 60°06' E 005°54'3 3.0 030 / 4994.1 2.3-2.2 4.6
2016-Feb-11 00:00N 60°06' E 006°00'0 0.0 290 / 6993.3 3.2-1.8 5.1
2016-Feb-10 23:00N 60°06' E 006°00'0 0.0 060 / 8992.5 2.7-1.6 5.2
2016-Feb-10 21:00N 60°06' E 006°00'0 0.0 070 / 2809.9 2.5-1.5 4.9
2016-Feb-10 20:00N 60°06' E 006°00'0 0.0 060 / 12991.0 3.3-2.6 5.3
2016-Feb-10 19:00N 60°06' E 006°00'3 1.5 070 / 14990.3 3.7-2.8 5.3
2016-Feb-10 17:00N 60°06' E 005°54'7 6.7 050 / 6989.3 3.4-2.3 4.8
2016-Feb-10 16:00N 60°12' E 006°00'3 3.0 090 / 10988.6 3.6-2.3 4.0
2016-Feb-10 15:00N 60°12' E 006°06'3 3.0 100 / 8988.1 3.6-2.6 3.9
2016-Feb-10 14:00N 60°12' E 006°00'0 0.0 290 / 2987.1 3.7-1.7 3.8
2016-Feb-10 13:00N 60°12' E 006°00'0 0.0 220 / 2986.5 3.5-1.5 3.6
2016-Feb-10 10:00N 60°12' E 006°00'0 0.0 030 / 2985.5 2.1-0.9 3.0
2016-Feb-10 09:00N 60°12' E 006°00'0 0.0 300 / 2985.1 1.7-0.1 3.7
2016-Feb-10 08:00N 60°12' E 006°00'7 6.7 030 / 4984.5 0.7-1.1 4.1
2016-Feb-10 07:00N 60°06' E 005°54'0 0.0 160 / 6983.8 2.7 0.6 3.8
2016-Feb-10 06:00N 60°06' E 005°54'3 1.5 040 983.3 2.0-0.3 4.5
2016-Feb-10 04:00N 60°06' E 006°00'0 0.0 080 / 2982.5 1.9-0.1 4.5
2016-Feb-10 03:00N 60°06' E 006°00'3 3.0 040 / 14982.0 3.0 1.0 5.1
2016-Feb-10 02:00N 60°06' E 005°54'3 3.0 060 / 2981.8 2.3 0.7 4.3
2016-Feb-10 01:00N 60°06' E 006°00'0 0.0 050 / 4981.3 2.6 0.6 5.0
2016-Feb-10 00:00N 60°06' E 006°00'7 3.4 050 / 12980.8 3.2 1.1 5.6
2016-Feb-09 22:00N 60°12' E 006°06'0 0.0 060 / 8980.0 2.7 1.1 4.7
2016-Feb-09 21:00N 60°12' E 006°06'3 1.0 040 / 4979.5 2.2 0.8 3.6
2016-Feb-09 18:00N 60°12' E 006°00'0 0.0 020 / 4978.0 2.4 0.8 4.5
2016-Feb-09 17:00N 60°12' E 006°00'6 3.0 080 / 4977.2 2.1 0.3 4.7
2016-Feb-09 15:00N 60°06' E 006°00'10 6.8 070 / 6976.0 2.3 0.3 5.0
2016-Feb-09 13:33N 59°58' E 005°48'14 9.1
2016-Feb-09 12:00N 60°06' E 005°24'19 6.3 210 / 16974.0 5.8 2.7 6.8
2016-Feb-09 09:00N 60°24' E 005°12'7 6.7 160 / 17972.3 4.1 1.5 6.9
2016-Feb-09 08:00N 60°18' E 005°18'0 0.0 160 / 10971.6 4.5 1.9 7.1
2016-Feb-09 06:00N 60°18' E 005°18'0 0.0 160 / 10971.1 5.2 2.6 7.3
2016-Feb-09 05:00N 60°18' E 005°18'0 0.0 160 / 10971.0 4.9 2.2 7.3
2016-Feb-09 04:00N 60°18' E 005°18'0 0.0 160 / 8970.9 4.9 2.4 7.3
2016-Feb-09 03:00N 60°18' E 005°18'0 0.0 160 / 10970.6 4.6 2.1 7.3
2016-Feb-09 01:00N 60°18' E 005°18'0 0.0 160 / 8970.5 4.4 1.9 7.5
2016-Feb-09 00:00N 60°18' E 005°18'0 0.0 160 / 8970.4 4.4 1.8 7.3
2016-Feb-08 23:00N 60°18' E 005°18'0 0.0 160 / 8970.0 5.0 1.7 7.3
2016-Feb-08 22:00N 60°18' E 005°18'0 0.0 170 / 8970.1 5.0 2.1 7.3
2016-Feb-08 21:00N 60°18' E 005°18'0 0.0 160 / 8970.0 5.1 2.0 7.3
2016-Feb-08 20:00N 60°18' E 005°18'0 0.0 170 / 8969.9 5.5 2.6 7.3
2016-Feb-08 19:00N 60°18' E 005°18'0 0.0 170 / 8969.6 5.3 2.6 7.3
2016-Feb-08 18:00N 60°18' E 005°18'0 0.0 160 / 6969.5 4.6 2.2 7.3
2016-Feb-08 15:00N 60°18' E 005°18'0 0.0 170 / 8968.5 5.8 2.3 7.3
2016-Feb-08 14:00N 60°18' E 005°18'0 0.0 170 / 10968.4 6.1 2.8 7.3
2016-Feb-08 10:00N 60°18' E 005°18'0 0.0 160 / 10967.1 5.8 1.5 7.1
2016-Feb-08 09:00N 60°18' E 005°18'0 0.0 170 / 8967.0 6.3 1.6 7.1
2016-Feb-08 06:00N 60°18' E 005°18'0 0.0 160 / 8969.5 5.1 1.1 7.3
2016-Feb-08 04:00N 60°18' E 005°18'0 0.0 160 / 10972.0 5.6 1.8 7.3
2016-Feb-08 03:00N 60°18' E 005°18'0 0.0 160 / 12972.9 5.9 1.8 7.3
2016-Feb-08 02:00N 60°18' E 005°18'0 0.0 160 / 14973.4 5.0 1.8 7.2
2016-Feb-08 01:00N 60°18' E 005°18'0 0.0 160 / 16973.6 5.2 2.0 7.3
2016-Feb-08 00:00N 60°18' E 005°18'0 0.0 160 / 16973.8 5.1 2.0 7.3
2016-Feb-07 23:00N 60°18' E 005°18'0 0.0 160 / 16973.4 1.9-0.4 7.3
2016-Feb-07 22:00N 60°18' E 005°18'0 0.0 160 / 14973.0 3.5 0.7 7.3
2016-Feb-07 21:00N 60°18' E 005°18'0 0.0 160 / 17973.4 4.5 0.8 7.3
2016-Feb-07 20:00N 60°18' E 005°18'0 0.0 160 / 17974.9 5.5 0.3 7.1
2016-Feb-07 19:00N 60°18' E 005°18'0 0.0 170 / 10976.9 5.3 1.6 7.1
2016-Feb-07 18:00N 60°18' E 005°18'0 0.0 170 / 12978.1 5.0 1.7 7.3
2016-Feb-07 16:00N 60°18' E 005°18'0 0.0 160 / 10979.5 6.0 2.3 7.1
2016-Feb-07 15:00N 60°18' E 005°18'0 0.0 170 / 10979.6 6.8 2.5 7.1
2016-Feb-07 12:00N 60°18' E 005°18'0 0.0 170 / 10981.0 6.6 4.0 7.1
2016-Feb-07 11:00N 60°18' E 005°18'0 0.0 170 / 10979.2 7.0 4.3 7.1
2016-Feb-07 09:00N 60°18' E 005°18'0 0.0 170 / 10979.5 7.4 3.8 7.1
2016-Feb-07 07:00N 60°18' E 005°18'0 0.0 170 / 10980.8 7.6 5.0 7.0
2016-Feb-07 06:00N 60°18' E 005°18'0 0.0 170 / 12981.3 7.8 5.2 6.9
2016-Feb-07 04:00N 60°18' E 005°18'0 0.0 160 / 12982.5 8.1 5.8 6.8
2016-Feb-07 03:00N 60°18' E 005°18'0 0.0 160 / 12982.8 7.3 5.2 6.8
2016-Feb-07 00:00N 60°18' E 005°18'0 0.0 160 / 14983.9 6.2 2.7 7.0
2016-Feb-06 23:00N 60°18' E 005°18'0 0.0 160 / 14984.4 6.1 2.1 7.0
2016-Feb-06 22:00N 60°18' E 005°18'0 0.0 170 / 10985.5 5.9 1.6 6.9
2016-Feb-06 21:00N 60°18' E 005°18'0 0.0 210 / 2987.3 4.0 0.6 6.8
2016-Feb-06 19:00N 60°18' E 005°18'0 0.0 140 / 6991.5 5.0-0.7 7.1
2016-Feb-06 18:00N 60°18' E 005°18'0 0.0 170 / 4992.9 5.3-0.2 7.1
2016-Feb-06 17:00N 60°18' E 005°18'0 0.0 160 / 8994.1 5.6 0.3 7.1
2016-Feb-06 16:00N 60°18' E 005°18'0 0.0 170 / 8995.4 5.4 0.7 7.0
2016-Feb-06 15:00N 60°18' E 005°18'0 0.0 170 / 8995.9 5.6 1.2 7.1
2016-Feb-06 13:00N 60°18' E 005°18'0 0.0 160 / 8997.0 5.6 1.7 6.9
2016-Feb-06 12:00N 60°18' E 005°18'0 0.0 160 / 6997.4 6.0 1.9 6.8
2016-Feb-06 09:00N 60°18' E 005°18'0 0.0 160 / 4996.5 5.0 2.2 7.0
2016-Feb-06 08:00N 60°18' E 005°18'0 0.0 200 / 4996.0 5.0 2.3 7.0
2016-Feb-06 06:00N 60°18' E 005°18'0 0.0 240 / 6992.8 5.0 2.6 7.1
2016-Feb-06 04:00N 60°18' E 005°18'0 0.0 160 / 14991.6 7.2 4.6 7.0
2016-Feb-06 03:00N 60°18' E 005°18'0 0.0 160 / 16993.0 7.4 4.5 6.9
2016-Feb-06 01:00N 60°18' E 005°18'0 0.0 160 / 14994.9 7.3 5.1 6.9
2016-Feb-06 00:00N 60°18' E 005°18'0 0.0 170 / 12995.9 7.0 4.9 6.8
2016-Feb-05 21:00N 60°18' E 005°18'0 0.0 160 / 12999.0 6.5 4.6 6.8
2016-Feb-05 20:00N 60°18' E 005°18'0 0.0 160 / 14999.8 6.1 4.3 6.6
2016-Feb-05 19:00N 60°18' E 005°18'0 0.0 160 / 121000.3 6.2 4.2 6.6
2016-Feb-05 18:00N 60°18' E 005°18'0 0.0 160 / 141001.2 6.0 4.1 6.5
2016-Feb-05 17:00N 60°18' E 005°18'0 0.0 160 / 141002.0 5.7 3.7 6.3
2016-Feb-05 16:00N 60°18' E 005°18'0 0.0 160 / 141002.7 5.5 3.2 6.3
2016-Feb-05 15:00N 60°18' E 005°18'0 0.0 160 / 161003.2 5.0 2.5 6.1
2016-Feb-05 14:00N 60°18' E 005°18'0 0.0 160 / 161003.7 4.8 1.9 6.1
2016-Feb-05 13:00N 60°18' E 005°18'0 0.0 160 / 141004.6 4.3 1.0 6.1
2016-Feb-05 12:00N 60°18' E 005°18'0 0.0 160 / 101005.6 4.0 0.6 5.7
2016-Feb-05 11:00N 60°18' E 005°18'0 0.0 160 / 141006.5 3.6-0.0 5.8
2016-Feb-05 10:00N 60°18' E 005°18'0 0.0 160 / 141007.2 2.5-0.8 5.2
2016-Feb-05 09:00N 60°18' E 005°18'0 0.0 160 / 121008.1 1.9-1.7 5.1
2016-Feb-05 07:00N 60°18' E 005°18'0 0.0 170 / 8 1.9-1.9 4.6
2016-Feb-05 06:00N 60°18' E 005°18'0 0.0 170 / 81011.2 1.6-1.5 4.7
2016-Feb-05 05:00N 60°18' E 005°18'0 0.0 150 / 81012.1 2.2-1.8 4.8
2016-Feb-05 03:00N 60°18' E 005°18'0 0.0 150 / 61013.7 2.1-1.6 4.6
2016-Feb-05 02:00N 60°18' E 005°18'0 0.0 150 / 41014.7 1.8-1.4 4.9
2016-Feb-05 01:00N 60°18' E 005°18'0 0.0 140 / 61015.2 1.8-1.6 4.4
2016-Feb-05 00:00N 60°18' E 005°18'0 0.0 160 / 61015.3 1.8-1.5 4.1
2016-Feb-04 21:00N 60°18' E 005°18'0 0.0 160 / 61015.8 1.1-1.1 4.5
2016-Feb-04 19:00N 60°18' E 005°18'0 0.0 170 / 41015.6 1.0-0.6 4.5
2016-Feb-04 18:00N 60°18' E 005°18'0 0.0 160 / 21016.0 1.1-0.9 4.5
2016-Feb-04 17:00N 60°18' E 005°18'0 0.0 150 / 41015.5 1.3-0.5 4.2
2016-Feb-04 16:00N 60°18' E 005°18'0 0.0 170 / 21015.1 1.1-0.9 4.4
2016-Feb-04 15:00N 60°18' E 005°18'0 0.0 160 / 21014.7 1.0-1.0 4.3
2016-Feb-04 14:00N 60°18' E 005°18'0 0.0 160 / 41014.3 1.6-1.1 4.1
2016-Feb-04 13:00N 60°18' E 005°18'0 0.0 170 / 21013.7 1.6-1.2 4.1
2016-Feb-04 12:00N 60°18' E 005°18'0 0.0 200 / 21013.2 1.4-1.0 4.1
2016-Feb-04 11:00N 60°18' E 005°18'0 0.0 180 / 21013.1 0.8-1.0 3.9
2016-Feb-04 10:00N 60°18' E 005°18'0 0.0 140 / 41012.3 0.7-1.0 4.0
2016-Feb-04 09:00N 60°18' E 005°18'0 0.0 160 / 21011.8 0.4-1.1 4.1
2016-Feb-04 07:00N 60°18' E 005°18'0 0.0 050 / 21010.2 0.2-1.3 4.3
2016-Feb-04 06:00N 60°18' E 005°18'0 0.0 330 / 41010.1 -0.0-1.4 4.3
2016-Feb-04 05:00N 60°18' E 005°18'0 0.0 190 / 21010.0 0.4-1.2 4.3
2016-Feb-04 04:00N 60°18' E 005°18'0 0.0 160 / 21009.3 0.5-1.3 4.4
2016-Feb-04 03:00N 60°18' E 005°18'0 0.0 160 / 41009.0 0.4-1.3 4.3
2016-Feb-04 02:00N 60°18' E 005°18'0 0.0 170 1009.0 1.1-0.9 4.5
2016-Feb-04 01:00N 60°18' E 005°18'0 0.0 210 1008.7 0.8-1.1 4.4
2016-Feb-04 00:00N 60°18' E 005°18'0 0.0 310 / 21008.6 1.1-0.8 4.5
2016-Feb-03 23:00N 60°18' E 005°18'0 0.0 280 / 41008.2 1.0-1.0 4.6
2016-Feb-03 22:00N 60°18' E 005°18'0 0.0 330 / 81007.8 1.2-1.3 4.6
2016-Feb-03 21:00N 60°18' E 005°18'0 0.0 320 / 41006.9 2.4-1.0 4.9
2016-Feb-03 20:00N 60°18' E 005°18'0 0.0 310 / 41006.5 2.3-0.7 4.9
2016-Feb-03 18:00N 60°18' E 005°18'0 0.0 300 / 21005.2 1.6-0.5 5.1
2016-Feb-03 17:00N 60°18' E 005°18'0 0.0 360 / 61005.1 1.5-0.8 5.1
2016-Feb-03 16:00N 60°18' E 005°18'0 0.0 310 / 61004.2 2.2-0.5 5.1
2016-Feb-03 15:00N 60°18' E 005°18'0 0.0 280 / 81003.6 2.0-1.0 5.2
2016-Feb-03 14:00N 60°18' E 005°18'0 0.0 330 / 61003.1 2.0-0.7 5.3
2016-Feb-03 13:00N 60°18' E 005°18'0 0.0 1002.5 3.1-1.3 5.1
2016-Feb-03 12:00N 60°18' E 005°18'0 0.0 300 / 61002.1 2.5-1.7 5.2
2016-Feb-03 11:00N 60°18' E 005°18'0 0.0 300 / 81001.2 3.9-1.5 5.1
2016-Feb-03 10:00N 60°18' E 005°18'   300 / 81000.4 3.5-0.2 5.3

Dump ship's entire track history